sensor_id;sensor_type;location;lat;lon;timestamp;P1;durP1;ratioP1;P2;durP2;ratioP2
16440;SDS011;8330;-33.858;151.184;2023-02-21T00:01:56;3.97;;;1.30;;
16440;SDS011;8330;-33.858;151.184;2023-02-21T00:04:43;3.08;;;1.05;;
16440;SDS011;8330;-33.858;151.184;2023-02-21T00:07:30;4.13;;;1.10;;
16440;SDS011;8330;-33.858;151.184;2023-02-21T00:10:18;3.63;;;1.23;;
16440;SDS011;8330;-33.858;151.184;2023-02-21T00:13:05;3.05;;;1.20;;
16440;SDS011;8330;-33.858;151.184;2023-02-21T00:15:52;3.83;;;1.20;;
16440;SDS011;8330;-33.858;151.184;2023-02-21T00:18:41;3.60;;;1.38;;
16440;SDS011;8330;-33.858;151.184;2023-02-21T00:21:28;4.53;;;1.27;;
16440;SDS011;8330;-33.858;151.184;2023-02-21T00:24:16;3.50;;;0.88;;
16440;SDS011;8330;-33.858;151.184;2023-02-21T00:27:03;3.03;;;0.73;;
16440;SDS011;8330;-33.858;151.184;2023-02-21T00:29:50;5.07;;;1.25;;
16440;SDS011;8330;-33.858;151.184;2023-02-21T00:32:37;4.90;;;1.15;;
16440;SDS011;8330;-33.858;151.184;2023-02-21T00:35:26;4.88;;;1.40;;
16440;SDS011;8330;-33.858;151.184;2023-02-21T00:38:12;7.63;;;1.33;;
16440;SDS011;8330;-33.858;151.184;2023-02-21T00:40:59;9.00;;;1.25;;
16440;SDS011;8330;-33.858;151.184;2023-02-21T00:43:46;4.35;;;1.20;;
16440;SDS011;8330;-33.858;151.184;2023-02-21T00:46:33;5.88;;;1.17;;
16440;SDS011;8330;-33.858;151.184;2023-02-21T00:49:20;5.45;;;1.45;;
16440;SDS011;8330;-33.858;151.184;2023-02-21T00:52:09;5.43;;;1.17;;
16440;SDS011;8330;-33.858;151.184;2023-02-21T00:54:55;4.85;;;1.20;;
16440;SDS011;8330;-33.858;151.184;2023-02-21T00:57:42;4.90;;;1.20;;
16440;SDS011;8330;-33.858;151.184;2023-02-21T01:00:29;6.53;;;1.30;;
16440;SDS011;8330;-33.858;151.184;2023-02-21T01:03:16;5.13;;;1.30;;
16440;SDS011;8330;-33.858;151.184;2023-02-21T01:06:06;4.20;;;1.35;;
16440;SDS011;8330;-33.858;151.184;2023-02-21T01:08:56;4.10;;;1.30;;
16440;SDS011;8330;-33.858;151.184;2023-02-21T01:11:42;5.80;;;1.50;;
16440;SDS011;8330;-33.858;151.184;2023-02-21T01:14:29;4.90;;;1.35;;
16440;SDS011;8330;-33.858;151.184;2023-02-21T01:17:16;4.93;;;1.50;;
16440;SDS011;8330;-33.858;151.184;2023-02-21T01:20:03;7.22;;;1.52;;
16440;SDS011;8330;-33.858;151.184;2023-02-21T01:22:51;5.82;;;1.23;;
16440;SDS011;8330;-33.858;151.184;2023-02-21T01:25:39;4.80;;;1.35;;
16440;SDS011;8330;-33.858;151.184;2023-02-21T01:28:26;7.30;;;1.58;;
16440;SDS011;8330;-33.858;151.184;2023-02-21T01:31:16;6.78;;;1.58;;
16440;SDS011;8330;-33.858;151.184;2023-02-21T01:34:03;5.93;;;1.60;;
16440;SDS011;8330;-33.858;151.184;2023-02-21T01:36:50;4.75;;;1.38;;
16440;SDS011;8330;-33.858;151.184;2023-02-21T01:39:37;7.50;;;1.40;;
16440;SDS011;8330;-33.858;151.184;2023-02-21T01:42:27;4.78;;;1.05;;
16440;SDS011;8330;-33.858;151.184;2023-02-21T01:45:26;6.85;;;1.25;;
16440;SDS011;8330;-33.858;151.184;2023-02-21T01:48:33;4.78;;;1.20;;
16440;SDS011;8330;-33.858;151.184;2023-02-21T01:51:22;5.38;;;1.50;;
16440;SDS011;8330;-33.858;151.184;2023-02-21T01:54:10;4.43;;;1.13;;
16440;SDS011;8330;-33.858;151.184;2023-02-21T01:56:58;4.85;;;1.30;;
16440;SDS011;8330;-33.858;151.184;2023-02-21T01:59:48;3.85;;;1.02;;
16440;SDS011;8330;-33.858;151.184;2023-02-21T02:02:45;3.28;;;1.13;;
16440;SDS011;8330;-33.858;151.184;2023-02-21T02:05:36;6.38;;;1.42;;
16440;SDS011;8330;-33.858;151.184;2023-02-21T02:08:26;5.75;;;1.42;;
16440;SDS011;8330;-33.858;151.184;2023-02-21T02:11:16;7.25;;;1.48;;
16440;SDS011;8330;-33.858;151.184;2023-02-21T02:14:14;5.80;;;1.40;;
16440;SDS011;8330;-33.858;151.184;2023-02-21T02:17:14;5.30;;;1.23;;
16440;SDS011;8330;-33.858;151.184;2023-02-21T02:20:06;2.97;;;1.00;;
16440;SDS011;8330;-33.858;151.184;2023-02-21T02:22:59;5.47;;;1.20;;
16440;SDS011;8330;-33.858;151.184;2023-02-21T02:25:55;4.43;;;1.23;;
16440;SDS011;8330;-33.858;151.184;2023-02-21T02:28:45;4.55;;;1.20;;
16440;SDS011;8330;-33.858;151.184;2023-02-21T02:31:41;3.65;;;1.00;;
16440;SDS011;8330;-33.858;151.184;2023-02-21T02:37:30;5.68;;;1.40;;
16440;SDS011;8330;-33.858;151.184;2023-02-21T02:40:08;5.97;;;1.38;;
16440;SDS011;8330;-33.858;151.184;2023-02-21T02:42:50;6.72;;;1.40;;
16440;SDS011;8330;-33.858;151.184;2023-02-21T02:45:29;5.68;;;1.35;;
16440;SDS011;8330;-33.858;151.184;2023-02-21T02:48:06;6.95;;;1.30;;
16440;SDS011;8330;-33.858;151.184;2023-02-21T02:50:46;4.93;;;1.08;;
16440;SDS011;8330;-33.858;151.184;2023-02-21T02:53:19;5.72;;;1.40;;
16440;SDS011;8330;-33.858;151.184;2023-02-21T02:55:55;4.65;;;1.30;;
16440;SDS011;8330;-33.858;151.184;2023-02-21T02:58:28;5.15;;;1.25;;
16440;SDS011;8330;-33.858;151.184;2023-02-21T03:01:07;8.35;;;1.55;;
16440;SDS011;8330;-33.858;151.184;2023-02-21T03:03:51;5.28;;;1.20;;
16440;SDS011;8330;-33.858;151.184;2023-02-21T03:06:33;5.90;;;1.15;;
16440;SDS011;8330;-33.858;151.184;2023-02-21T03:09:15;6.55;;;1.40;;
16440;SDS011;8330;-33.858;151.184;2023-02-21T03:11:55;4.53;;;1.33;;
16440;SDS011;8330;-33.858;151.184;2023-02-21T03:14:35;4.40;;;1.13;;
16440;SDS011;8330;-33.858;151.184;2023-02-21T03:17:09;5.05;;;1.48;;
16440;SDS011;8330;-33.858;151.184;2023-02-21T03:19:45;3.90;;;1.08;;
16440;SDS011;8330;-33.858;151.184;2023-02-21T03:22:20;4.60;;;1.20;;
16440;SDS011;8330;-33.858;151.184;2023-02-21T03:24:53;5.63;;;1.13;;
16440;SDS011;8330;-33.858;151.184;2023-02-21T03:27:25;6.47;;;0.93;;
16440;SDS011;8330;-33.858;151.184;2023-02-21T03:29:58;4.75;;;1.10;;
16440;SDS011;8330;-33.858;151.184;2023-02-21T03:32:33;5.38;;;1.17;;
16440;SDS011;8330;-33.858;151.184;2023-02-21T03:35:06;4.30;;;1.23;;
16440;SDS011;8330;-33.858;151.184;2023-02-21T03:37:40;3.63;;;0.82;;
16440;SDS011;8330;-33.858;151.184;2023-02-21T03:40:13;3.22;;;0.95;;
16440;SDS011;8330;-33.858;151.184;2023-02-21T03:42:46;4.68;;;1.17;;
16440;SDS011;8330;-33.858;151.184;2023-02-21T03:45:17;6.20;;;1.35;;
16440;SDS011;8330;-33.858;151.184;2023-02-21T03:47:48;4.63;;;1.20;;
16440;SDS011;8330;-33.858;151.184;2023-02-21T03:50:23;6.47;;;1.35;;
16440;SDS011;8330;-33.858;151.184;2023-02-21T03:52:56;5.28;;;1.13;;
16440;SDS011;8330;-33.858;151.184;2023-02-21T03:55:29;4.97;;;1.10;;
16440;SDS011;8330;-33.858;151.184;2023-02-21T03:58:00;5.18;;;1.40;;
16440;SDS011;8330;-33.858;151.184;2023-02-21T04:00:32;5.32;;;1.10;;
16440;SDS011;8330;-33.858;151.184;2023-02-21T04:03:03;3.58;;;1.10;;
16440;SDS011;8330;-33.858;151.184;2023-02-21T04:05:35;7.30;;;1.33;;
16440;SDS011;8330;-33.858;151.184;2023-02-21T04:08:08;4.63;;;0.98;;
16440;SDS011;8330;-33.858;151.184;2023-02-21T04:10:39;3.08;;;1.02;;
16440;SDS011;8330;-33.858;151.184;2023-02-21T04:13:10;3.75;;;1.30;;
16440;SDS011;8330;-33.858;151.184;2023-02-21T04:15:41;7.05;;;1.45;;
16440;SDS011;8330;-33.858;151.184;2023-02-21T04:18:13;6.57;;;1.30;;
16440;SDS011;8330;-33.858;151.184;2023-02-21T04:20:46;4.57;;;1.23;;
16440;SDS011;8330;-33.858;151.184;2023-02-21T04:23:19;7.13;;;1.42;;
16440;SDS011;8330;-33.858;151.184;2023-02-21T04:25:50;4.15;;;0.93;;
16440;SDS011;8330;-33.858;151.184;2023-02-21T04:28:23;4.75;;;1.30;;
16440;SDS011;8330;-33.858;151.184;2023-02-21T04:30:54;3.03;;;1.10;;
16440;SDS011;8330;-33.858;151.184;2023-02-21T04:33:25;4.03;;;1.35;;
16440;SDS011;8330;-33.858;151.184;2023-02-21T04:35:57;4.30;;;1.25;;
16440;SDS011;8330;-33.858;151.184;2023-02-21T04:38:30;7.05;;;1.40;;
16440;SDS011;8330;-33.858;151.184;2023-02-21T04:41:01;3.92;;;1.20;;
16440;SDS011;8330;-33.858;151.184;2023-02-21T04:43:33;6.97;;;1.08;;
16440;SDS011;8330;-33.858;151.184;2023-02-21T04:46:04;6.07;;;1.30;;
16440;SDS011;8330;-33.858;151.184;2023-02-21T04:48:36;6.43;;;1.25;;
16440;SDS011;8330;-33.858;151.184;2023-02-21T04:51:07;6.07;;;1.38;;
16440;SDS011;8330;-33.858;151.184;2023-02-21T04:53:41;4.55;;;1.13;;
16440;SDS011;8330;-33.858;151.184;2023-02-21T04:56:16;5.70;;;1.20;;
16440;SDS011;8330;-33.858;151.184;2023-02-21T04:58:48;5.82;;;1.25;;
16440;SDS011;8330;-33.858;151.184;2023-02-21T05:01:20;3.72;;;1.20;;
16440;SDS011;8330;-33.858;151.184;2023-02-21T05:03:51;8.23;;;1.40;;
16440;SDS011;8330;-33.858;151.184;2023-02-21T05:06:22;7.82;;;1.40;;
16440;SDS011;8330;-33.858;151.184;2023-02-21T05:08:57;5.13;;;1.40;;
16440;SDS011;8330;-33.858;151.184;2023-02-21T05:11:31;5.10;;;1.10;;
16440;SDS011;8330;-33.858;151.184;2023-02-21T05:14:03;5.38;;;1.40;;
16440;SDS011;8330;-33.858;151.184;2023-02-21T05:16:34;6.55;;;1.38;;
16440;SDS011;8330;-33.858;151.184;2023-02-21T05:19:05;5.57;;;1.65;;
16440;SDS011;8330;-33.858;151.184;2023-02-21T05:21:36;4.10;;;1.20;;
16440;SDS011;8330;-33.858;151.184;2023-02-21T05:24:09;6.60;;;1.33;;
16440;SDS011;8330;-33.858;151.184;2023-02-21T05:26:40;5.03;;;1.65;;
16440;SDS011;8330;-33.858;151.184;2023-02-21T05:29:11;7.28;;;1.60;;
16440;SDS011;8330;-33.858;151.184;2023-02-21T05:31:43;8.00;;;1.45;;
16440;SDS011;8330;-33.858;151.184;2023-02-21T05:34:14;7.35;;;1.25;;
16440;SDS011;8330;-33.858;151.184;2023-02-21T05:36:46;9.98;;;1.40;;
16440;SDS011;8330;-33.858;151.184;2023-02-21T05:39:19;8.43;;;1.25;;
16440;SDS011;8330;-33.858;151.184;2023-02-21T05:41:50;9.15;;;1.40;;
16440;SDS011;8330;-33.858;151.184;2023-02-21T05:47:18;6.15;;;1.38;;
16440;SDS011;8330;-33.858;151.184;2023-02-21T05:49:49;4.60;;;1.10;;
16440;SDS011;8330;-33.858;151.184;2023-02-21T05:52:20;6.35;;;1.45;;
16440;SDS011;8330;-33.858;151.184;2023-02-21T05:54:55;9.05;;;1.42;;
16440;SDS011;8330;-33.858;151.184;2023-02-21T05:57:27;5.05;;;1.30;;
16440;SDS011;8330;-33.858;151.184;2023-02-21T05:59:58;5.55;;;1.35;;
16440;SDS011;8330;-33.858;151.184;2023-02-21T06:02:30;5.00;;;1.40;;
16440;SDS011;8330;-33.858;151.184;2023-02-21T06:05:01;5.75;;;1.70;;
16440;SDS011;8330;-33.858;151.184;2023-02-21T06:07:33;12.43;;;3.22;;
16440;SDS011;8330;-33.858;151.184;2023-02-21T06:10:06;11.95;;;4.55;;
16440;SDS011;8330;-33.858;151.184;2023-02-21T06:12:38;9.43;;;1.98;;
16440;SDS011;8330;-33.858;151.184;2023-02-21T06:15:09;7.18;;;1.50;;
16440;SDS011;8330;-33.858;151.184;2023-02-21T06:17:40;6.30;;;1.50;;
16440;SDS011;8330;-33.858;151.184;2023-02-21T06:20:12;6.15;;;1.30;;
16440;SDS011;8330;-33.858;151.184;2023-02-21T06:22:44;5.00;;;1.30;;
16440;SDS011;8330;-33.858;151.184;2023-02-21T06:25:17;6.40;;;1.25;;
16440;SDS011;8330;-33.858;151.184;2023-02-21T06:27:48;5.43;;;1.23;;
16440;SDS011;8330;-33.858;151.184;2023-02-21T06:30:19;5.38;;;1.30;;
16440;SDS011;8330;-33.858;151.184;2023-02-21T06:32:50;6.88;;;1.70;;
16440;SDS011;8330;-33.858;151.184;2023-02-21T06:35:21;6.70;;;1.48;;
16440;SDS011;8330;-33.858;151.184;2023-02-21T06:37:52;6.30;;;1.20;;
16440;SDS011;8330;-33.858;151.184;2023-02-21T06:40:25;5.70;;;1.42;;
16440;SDS011;8330;-33.858;151.184;2023-02-21T06:42:56;5.97;;;1.60;;
16440;SDS011;8330;-33.858;151.184;2023-02-21T06:45:27;5.70;;;1.40;;
16440;SDS011;8330;-33.858;151.184;2023-02-21T06:47:58;6.70;;;1.65;;
16440;SDS011;8330;-33.858;151.184;2023-02-21T06:50:30;8.10;;;1.60;;
16440;SDS011;8330;-33.858;151.184;2023-02-21T06:53:03;5.80;;;1.40;;
16440;SDS011;8330;-33.858;151.184;2023-02-21T06:55:37;7.72;;;1.50;;
16440;SDS011;8330;-33.858;151.184;2023-02-21T06:58:08;6.47;;;1.48;;
16440;SDS011;8330;-33.858;151.184;2023-02-21T07:00:39;6.00;;;1.27;;
16440;SDS011;8330;-33.858;151.184;2023-02-21T07:03:10;6.22;;;1.25;;
16440;SDS011;8330;-33.858;151.184;2023-02-21T07:05:41;6.35;;;1.23;;
16440;SDS011;8330;-33.858;151.184;2023-02-21T07:08:12;7.18;;;1.40;;
16440;SDS011;8330;-33.858;151.184;2023-02-21T07:10:47;5.85;;;1.95;;
16440;SDS011;8330;-33.858;151.184;2023-02-21T07:13:19;5.63;;;1.80;;
16440;SDS011;8330;-33.858;151.184;2023-02-21T07:15:50;8.68;;;2.42;;
16440;SDS011;8330;-33.858;151.184;2023-02-21T07:18:21;13.43;;;2.85;;
16440;SDS011;8330;-33.858;151.184;2023-02-21T07:20:52;13.38;;;2.78;;
16440;SDS011;8330;-33.858;151.184;2023-02-21T07:23:23;13.82;;;3.13;;
16440;SDS011;8330;-33.858;151.184;2023-02-21T07:26:00;10.52;;;2.90;;
16440;SDS011;8330;-33.858;151.184;2023-02-21T07:28:31;13.32;;;3.08;;
16440;SDS011;8330;-33.858;151.184;2023-02-21T07:31:02;13.50;;;3.38;;
16440;SDS011;8330;-33.858;151.184;2023-02-21T07:33:33;8.70;;;2.53;;
16440;SDS011;8330;-33.858;151.184;2023-02-21T07:36:04;9.98;;;2.70;;
16440;SDS011;8330;-33.858;151.184;2023-02-21T07:38:36;13.23;;;2.97;;
16440;SDS011;8330;-33.858;151.184;2023-02-21T07:41:12;10.05;;;2.80;;
16440;SDS011;8330;-33.858;151.184;2023-02-21T07:43:44;11.27;;;2.75;;
16440;SDS011;8330;-33.858;151.184;2023-02-21T07:46:15;10.90;;;2.83;;
16440;SDS011;8330;-33.858;151.184;2023-02-21T07:48:46;11.18;;;3.10;;
16440;SDS011;8330;-33.858;151.184;2023-02-21T07:51:18;11.55;;;2.95;;
16440;SDS011;8330;-33.858;151.184;2023-02-21T07:53:51;12.43;;;3.33;;
16440;SDS011;8330;-33.858;151.184;2023-02-21T07:56:24;13.82;;;3.50;;
16440;SDS011;8330;-33.858;151.184;2023-02-21T07:58:55;12.43;;;3.42;;
16440;SDS011;8330;-33.858;151.184;2023-02-21T08:01:26;12.90;;;3.08;;
16440;SDS011;8330;-33.858;151.184;2023-02-21T08:03:57;5.55;;;1.98;;
16440;SDS011;8330;-33.858;151.184;2023-02-21T08:06:28;10.18;;;2.33;;
16440;SDS011;8330;-33.858;151.184;2023-02-21T08:08:59;4.88;;;1.55;;
16440;SDS011;8330;-33.858;151.184;2023-02-21T08:11:33;6.70;;;2.35;;
16440;SDS011;8330;-33.858;151.184;2023-02-21T08:14:05;10.15;;;2.80;;
16440;SDS011;8330;-33.858;151.184;2023-02-21T08:16:38;11.43;;;2.95;;
16440;SDS011;8330;-33.858;151.184;2023-02-21T08:19:09;18.80;;;3.88;;
16440;SDS011;8330;-33.858;151.184;2023-02-21T08:21:43;4.80;;;1.80;;
16440;SDS011;8330;-33.858;151.184;2023-02-21T08:24:15;11.55;;;3.00;;
16440;SDS011;8330;-33.858;151.184;2023-02-21T08:26:49;10.80;;;3.03;;
16440;SDS011;8330;-33.858;151.184;2023-02-21T08:29:20;10.00;;;3.08;;
16440;SDS011;8330;-33.858;151.184;2023-02-21T08:31:51;11.57;;;3.38;;
16440;SDS011;8330;-33.858;151.184;2023-02-21T08:34:23;12.15;;;3.63;;
16440;SDS011;8330;-33.858;151.184;2023-02-21T08:36:55;9.32;;;2.83;;
16440;SDS011;8330;-33.858;151.184;2023-02-21T08:39:26;14.00;;;3.30;;
16440;SDS011;8330;-33.858;151.184;2023-02-21T08:41:59;8.93;;;2.40;;
16440;SDS011;8330;-33.858;151.184;2023-02-21T08:44:30;11.20;;;2.70;;
16440;SDS011;8330;-33.858;151.184;2023-02-21T08:47:01;8.63;;;2.40;;
16440;SDS011;8330;-33.858;151.184;2023-02-21T08:49:32;6.53;;;2.40;;
16440;SDS011;8330;-33.858;151.184;2023-02-21T08:52:07;5.60;;;2.20;;
16440;SDS011;8330;-33.858;151.184;2023-02-21T08:54:39;3.72;;;1.75;;
16440;SDS011;8330;-33.858;151.184;2023-02-21T08:57:15;3.70;;;2.25;;
16440;SDS011;8330;-33.858;151.184;2023-02-21T08:59:59;11.25;;;3.67;;
16440;SDS011;8330;-33.858;151.184;2023-02-21T09:02:35;11.45;;;4.78;;
16440;SDS011;8330;-33.858;151.184;2023-02-21T09:05:14;15.40;;;5.20;;
16440;SDS011;8330;-33.858;151.184;2023-02-21T09:07:48;16.67;;;5.63;;
16440;SDS011;8330;-33.858;151.184;2023-02-21T09:10:20;13.02;;;5.60;;
16440;SDS011;8330;-33.858;151.184;2023-02-21T09:16:14;15.48;;;6.03;;
16440;SDS011;8330;-33.858;151.184;2023-02-21T09:18:52;14.10;;;5.43;;
16440;SDS011;8330;-33.858;151.184;2023-02-21T09:21:31;16.33;;;5.60;;
16440;SDS011;8330;-33.858;151.184;2023-02-21T09:24:19;12.85;;;5.72;;
16440;SDS011;8330;-33.858;151.184;2023-02-21T09:26:52;16.55;;;6.40;;
16440;SDS011;8330;-33.858;151.184;2023-02-21T09:29:25;14.75;;;5.65;;
16440;SDS011;8330;-33.858;151.184;2023-02-21T09:31:59;13.27;;;5.65;;
16440;SDS011;8330;-33.858;151.184;2023-02-21T09:34:34;16.02;;;6.18;;
16440;SDS011;8330;-33.858;151.184;2023-02-21T09:37:06;15.15;;;6.53;;
16440;SDS011;8330;-33.858;151.184;2023-02-21T09:39:37;14.57;;;6.13;;
16440;SDS011;8330;-33.858;151.184;2023-02-21T09:42:14;15.52;;;6.15;;
16440;SDS011;8330;-33.858;151.184;2023-02-21T09:44:52;13.75;;;6.20;;
16440;SDS011;8330;-33.858;151.184;2023-02-21T09:50:17;12.88;;;5.50;;
16440;SDS011;8330;-33.858;151.184;2023-02-21T09:52:56;15.07;;;5.40;;
16440;SDS011;8330;-33.858;151.184;2023-02-21T09:55:32;15.00;;;4.93;;
16440;SDS011;8330;-33.858;151.184;2023-02-21T09:58:10;13.07;;;5.05;;
16440;SDS011;8330;-33.858;151.184;2023-02-21T10:00:44;12.52;;;5.07;;
16440;SDS011;8330;-33.858;151.184;2023-02-21T10:06:35;10.35;;;5.03;;
16440;SDS011;8330;-33.858;151.184;2023-02-21T10:09:34;11.90;;;5.00;;
16440;SDS011;8330;-33.858;151.184;2023-02-21T10:12:23;10.73;;;4.93;;
16440;SDS011;8330;-33.858;151.184;2023-02-21T10:15:21;14.15;;;5.18;;
16440;SDS011;8330;-33.858;151.184;2023-02-21T10:18:22;12.65;;;5.53;;
16440;SDS011;8330;-33.858;151.184;2023-02-21T10:21:20;11.60;;;5.10;;
16440;SDS011;8330;-33.858;151.184;2023-02-21T10:24:11;11.30;;;5.13;;
16440;SDS011;8330;-33.858;151.184;2023-02-21T10:27:06;12.23;;;4.65;;
16440;SDS011;8330;-33.858;151.184;2023-02-21T10:29:45;11.27;;;4.90;;
16440;SDS011;8330;-33.858;151.184;2023-02-21T10:32:20;12.02;;;4.53;;
16440;SDS011;8330;-33.858;151.184;2023-02-21T10:34:56;13.88;;;4.28;;
16440;SDS011;8330;-33.858;151.184;2023-02-21T10:37:53;10.50;;;3.70;;
16440;SDS011;8330;-33.858;151.184;2023-02-21T10:40:44;8.77;;;3.28;;
16440;SDS011;8330;-33.858;151.184;2023-02-21T10:43:27;9.98;;;3.47;;
16440;SDS011;8330;-33.858;151.184;2023-02-21T10:46:04;9.50;;;3.53;;
16440;SDS011;8330;-33.858;151.184;2023-02-21T10:48:42;7.82;;;3.67;;
16440;SDS011;8330;-33.858;151.184;2023-02-21T10:51:15;7.30;;;3.10;;
16440;SDS011;8330;-33.858;151.184;2023-02-21T10:54:15;7.95;;;3.78;;
16440;SDS011;8330;-33.858;151.184;2023-02-21T10:56:48;11.55;;;4.10;;
16440;SDS011;8330;-33.858;151.184;2023-02-21T10:59:22;10.25;;;4.05;;
16440;SDS011;8330;-33.858;151.184;2023-02-21T11:01:58;7.72;;;3.83;;
16440;SDS011;8330;-33.858;151.184;2023-02-21T11:04:35;9.65;;;4.55;;
16440;SDS011;8330;-33.858;151.184;2023-02-21T11:07:10;10.75;;;4.50;;
16440;SDS011;8330;-33.858;151.184;2023-02-21T11:09:46;14.13;;;4.45;;
16440;SDS011;8330;-33.858;151.184;2023-02-21T11:12:19;8.05;;;3.90;;
16440;SDS011;8330;-33.858;151.184;2023-02-21T11:18:01;10.57;;;4.30;;
16440;SDS011;8330;-33.858;151.184;2023-02-21T11:20:40;10.35;;;4.15;;
16440;SDS011;8330;-33.858;151.184;2023-02-21T11:23:18;11.95;;;4.38;;
16440;SDS011;8330;-33.858;151.184;2023-02-21T11:25:56;11.93;;;4.07;;
16440;SDS011;8330;-33.858;151.184;2023-02-21T11:28:36;10.20;;;4.00;;
16440;SDS011;8330;-33.858;151.184;2023-02-21T11:31:13;12.70;;;3.75;;
16440;SDS011;8330;-33.858;151.184;2023-02-21T11:33:50;11.55;;;3.85;;
16440;SDS011;8330;-33.858;151.184;2023-02-21T11:36:27;9.77;;;3.50;;
16440;SDS011;8330;-33.858;151.184;2023-02-21T11:39:02;9.73;;;3.75;;
16440;SDS011;8330;-33.858;151.184;2023-02-21T11:41:43;9.45;;;3.70;;
16440;SDS011;8330;-33.858;151.184;2023-02-21T11:44:23;7.40;;;3.40;;
16440;SDS011;8330;-33.858;151.184;2023-02-21T11:47:00;9.15;;;3.60;;
16440;SDS011;8330;-33.858;151.184;2023-02-21T11:49:47;6.65;;;3.22;;
16440;SDS011;8330;-33.858;151.184;2023-02-21T11:52:24;12.90;;;3.88;;
16440;SDS011;8330;-33.858;151.184;2023-02-21T11:54:59;11.00;;;4.13;;
16440;SDS011;8330;-33.858;151.184;2023-02-21T11:57:36;10.32;;;4.07;;
16440;SDS011;8330;-33.858;151.184;2023-02-21T12:00:16;9.73;;;4.07;;
16440;SDS011;8330;-33.858;151.184;2023-02-21T12:02:57;10.50;;;4.10;;
16440;SDS011;8330;-33.858;151.184;2023-02-21T12:05:44;15.70;;;5.03;;
16440;SDS011;8330;-33.858;151.184;2023-02-21T12:08:28;13.65;;;4.68;;
16440;SDS011;8330;-33.858;151.184;2023-02-21T12:11:11;11.90;;;5.18;;
16440;SDS011;8330;-33.858;151.184;2023-02-21T12:14:01;11.05;;;4.43;;
16440;SDS011;8330;-33.858;151.184;2023-02-21T12:16:43;10.00;;;3.75;;
16440;SDS011;8330;-33.858;151.184;2023-02-21T12:22:30;8.18;;;3.58;;
16440;SDS011;8330;-33.858;151.184;2023-02-21T12:25:15;8.13;;;3.70;;
16440;SDS011;8330;-33.858;151.184;2023-02-21T12:27:53;10.63;;;4.25;;
16440;SDS011;8330;-33.858;151.184;2023-02-21T12:30:36;14.85;;;4.50;;
16440;SDS011;8330;-33.858;151.184;2023-02-21T12:33:20;13.50;;;4.25;;
16440;SDS011;8330;-33.858;151.184;2023-02-21T12:36:07;8.93;;;4.15;;
16440;SDS011;8330;-33.858;151.184;2023-02-21T12:39:05;13.98;;;4.53;;
16440;SDS011;8330;-33.858;151.184;2023-02-21T12:44:50;12.68;;;4.90;;
16440;SDS011;8330;-33.858;151.184;2023-02-21T12:47:31;15.60;;;5.15;;
16440;SDS011;8330;-33.858;151.184;2023-02-21T12:50:10;13.63;;;4.57;;
16440;SDS011;8330;-33.858;151.184;2023-02-21T12:52:47;11.77;;;4.30;;
16440;SDS011;8330;-33.858;151.184;2023-02-21T12:55:29;11.70;;;4.55;;
16440;SDS011;8330;-33.858;151.184;2023-02-21T12:58:03;10.50;;;4.47;;
16440;SDS011;8330;-33.858;151.184;2023-02-21T13:00:44;12.35;;;4.63;;
16440;SDS011;8330;-33.858;151.184;2023-02-21T13:03:29;15.70;;;4.60;;
16440;SDS011;8330;-33.858;151.184;2023-02-21T13:06:11;14.52;;;4.90;;
16440;SDS011;8330;-33.858;151.184;2023-02-21T13:08:51;13.02;;;4.95;;
16440;SDS011;8330;-33.858;151.184;2023-02-21T13:11:36;15.82;;;4.90;;
16440;SDS011;8330;-33.858;151.184;2023-02-21T13:14:13;10.38;;;3.60;;
16440;SDS011;8330;-33.858;151.184;2023-02-21T13:16:56;13.18;;;3.50;;
16440;SDS011;8330;-33.858;151.184;2023-02-21T13:19:37;11.90;;;3.83;;
16440;SDS011;8330;-33.858;151.184;2023-02-21T13:25:22;16.00;;;3.78;;
16440;SDS011;8330;-33.858;151.184;2023-02-21T13:28:07;10.35;;;3.58;;
16440;SDS011;8330;-33.858;151.184;2023-02-21T13:30:44;16.83;;;4.50;;
16440;SDS011;8330;-33.858;151.184;2023-02-21T13:33:25;12.48;;;3.65;;
16440;SDS011;8330;-33.858;151.184;2023-02-21T13:36:00;15.27;;;3.53;;
16440;SDS011;8330;-33.858;151.184;2023-02-21T13:38:43;11.38;;;3.25;;
16440;SDS011;8330;-33.858;151.184;2023-02-21T13:41:14;13.38;;;3.60;;
16440;SDS011;8330;-33.858;151.184;2023-02-21T13:43:46;13.55;;;3.72;;
16440;SDS011;8330;-33.858;151.184;2023-02-21T13:49:47;12.52;;;3.10;;
16440;SDS011;8330;-33.858;151.184;2023-02-21T13:52:34;12.48;;;3.60;;
16440;SDS011;8330;-33.858;151.184;2023-02-21T13:55:27;10.73;;;3.30;;
16440;SDS011;8330;-33.858;151.184;2023-02-21T14:01:19;9.98;;;2.90;;
16440;SDS011;8330;-33.858;151.184;2023-02-21T14:03:52;10.40;;;3.20;;
16440;SDS011;8330;-33.858;151.184;2023-02-21T14:06:34;15.82;;;3.60;;
16440;SDS011;8330;-33.858;151.184;2023-02-21T14:09:10;10.70;;;2.88;;
16440;SDS011;8330;-33.858;151.184;2023-02-21T14:11:43;10.38;;;2.95;;
16440;SDS011;8330;-33.858;151.184;2023-02-21T14:14:21;8.63;;;2.50;;
16440;SDS011;8330;-33.858;151.184;2023-02-21T14:16:58;11.35;;;3.05;;
16440;SDS011;8330;-33.858;151.184;2023-02-21T14:19:33;10.63;;;3.10;;
16440;SDS011;8330;-33.858;151.184;2023-02-21T14:22:21;11.60;;;3.35;;
16440;SDS011;8330;-33.858;151.184;2023-02-21T14:25:03;11.82;;;3.60;;
16440;SDS011;8330;-33.858;151.184;2023-02-21T14:27:36;13.43;;;4.10;;
16440;SDS011;8330;-33.858;151.184;2023-02-21T14:30:15;15.13;;;4.10;;
16440;SDS011;8330;-33.858;151.184;2023-02-21T14:32:57;13.10;;;3.65;;
16440;SDS011;8330;-33.858;151.184;2023-02-21T14:35:45;12.18;;;3.72;;
16440;SDS011;8330;-33.858;151.184;2023-02-21T14:38:24;13.93;;;3.85;;
16440;SDS011;8330;-33.858;151.184;2023-02-21T14:41:00;14.65;;;3.70;;
16440;SDS011;8330;-33.858;151.184;2023-02-21T14:43:43;11.45;;;3.22;;
16440;SDS011;8330;-33.858;151.184;2023-02-21T14:46:39;17.25;;;3.92;;
16440;SDS011;8330;-33.858;151.184;2023-02-21T14:49:41;14.32;;;4.20;;
16440;SDS011;8330;-33.858;151.184;2023-02-21T14:52:42;14.15;;;3.40;;
16440;SDS011;8330;-33.858;151.184;2023-02-21T14:55:43;15.25;;;3.92;;
16440;SDS011;8330;-33.858;151.184;2023-02-21T15:01:30;13.52;;;3.42;;
16440;SDS011;8330;-33.858;151.184;2023-02-21T15:04:13;14.55;;;3.83;;
16440;SDS011;8330;-33.858;151.184;2023-02-21T15:06:59;12.35;;;3.45;;
16440;SDS011;8330;-33.858;151.184;2023-02-21T15:09:44;18.00;;;3.88;;
16440;SDS011;8330;-33.858;151.184;2023-02-21T15:12:32;14.45;;;3.42;;
16440;SDS011;8330;-33.858;151.184;2023-02-21T15:15:11;14.10;;;3.25;;
16440;SDS011;8330;-33.858;151.184;2023-02-21T15:17:57;17.30;;;3.38;;
16440;SDS011;8330;-33.858;151.184;2023-02-21T15:20:37;11.10;;;2.60;;
16440;SDS011;8330;-33.858;151.184;2023-02-21T15:23:12;11.18;;;2.72;;
16440;SDS011;8330;-33.858;151.184;2023-02-21T15:25:44;10.25;;;2.47;;
16440;SDS011;8330;-33.858;151.184;2023-02-21T15:28:27;10.50;;;2.55;;
16440;SDS011;8330;-33.858;151.184;2023-02-21T15:31:00;9.68;;;2.70;;
16440;SDS011;8330;-33.858;151.184;2023-02-21T15:33:33;16.80;;;3.17;;
16440;SDS011;8330;-33.858;151.184;2023-02-21T15:36:06;15.10;;;3.00;;
16440;SDS011;8330;-33.858;151.184;2023-02-21T15:38:45;13.85;;;2.88;;
16440;SDS011;8330;-33.858;151.184;2023-02-21T15:41:23;14.60;;;2.97;;
16440;SDS011;8330;-33.858;151.184;2023-02-21T15:44:01;12.93;;;2.55;;
16440;SDS011;8330;-33.858;151.184;2023-02-21T15:46:38;15.10;;;2.95;;
16440;SDS011;8330;-33.858;151.184;2023-02-21T15:49:14;12.63;;;2.80;;
16440;SDS011;8330;-33.858;151.184;2023-02-21T15:51:48;12.30;;;2.70;;
16440;SDS011;8330;-33.858;151.184;2023-02-21T15:54:26;17.27;;;3.25;;
16440;SDS011;8330;-33.858;151.184;2023-02-21T15:57:02;12.43;;;2.55;;
16440;SDS011;8330;-33.858;151.184;2023-02-21T15:59:47;11.55;;;2.28;;